Time;durP1;ratioP1;P1;durP2;ratioP2;P2;SDS_P1;SDS_P2;PMS_P1;PMS_P2;Temp;Humidity;BMP_temperature;BMP_pressure;BME280_temperature;BME280_humidity;BME280_pressure;Samples;Min_cycle;Max_cycle;Signal;HPM_P1;HPM_P2
2022/04/06 00:01:37;;;;;;;;;;;8.60;99.90;;;;;;4915126;29;19923;-82
2022/04/06 00:04:03;;;;;;;;;;;8.60;99.90;;;;;;4883807;29;19923;-76
2022/04/06 00:06:28;;;;;;;;;;;8.60;99.90;;;;;;4899376;29;19927;-77
2022/04/06 00:08:54;;;;;;;;;;;8.60;99.90;;;;;;4913397;29;20353;-77
2022/04/06 00:11:19;;;;;;;;;;;8.60;99.90;;;;;;4914843;29;19926;-76
2022/04/06 00:13:45;;;;;;;;;;;8.60;99.90;;;;;;4913550;29;19971;-77
2022/04/06 00:16:10;;;;;;;;;;;8.60;99.90;;;;;;4915282;29;19927;-77
2022/04/06 00:18:36;;;;;;;;;;;8.60;99.90;;;;;;4915159;29;20396;-83
2022/04/06 00:21:02;;;;;;;;;;;8.60;99.90;;;;;;4914120;29;19930;-77
2022/04/06 00:23:28;;;;;;;;;;;8.60;99.90;;;;;;4896069;29;19979;-77
2022/04/06 00:25:55;;;;;;;;;;;8.60;99.90;;;;;;4895442;29;19970;-76
2022/04/06 00:28:21;;;;;;;;;;;8.60;99.90;;;;;;4895038;29;20415;-77
2022/04/06 00:30:47;;;;;;;;;;;8.60;99.90;;;;;;4895681;29;20014;-77
2022/04/06 00:33:12;;;;;;;;;;;8.60;99.90;;;;;;4897904;29;19927;-77
2022/04/06 00:35:38;;;;;;;;;;;8.60;99.90;;;;;;4913737;29;19923;-82
2022/04/06 00:38:05;;;;;;;;;;;8.60;99.90;;;;;;4907908;29;19923;-77
2022/04/06 00:40:32;;;;;;;;;;;8.60;99.90;;;;;;4895911;29;20432;-77
2022/04/06 00:42:58;;;;;;;;;;;8.60;99.90;;;;;;4908029;29;19970;-77
2022/04/06 00:45:24;;;;;;;;;;;8.70;99.90;;;;;;4895647;29;19985;-77
2022/04/06 00:47:50;;;;;;;;;;;8.60;99.90;;;;;;4895415;29;19942;-76
2022/04/06 00:50:17;;;;;;;;;;;8.80;99.90;;;;;;4895351;29;20315;-76
2022/04/06 00:52:42;;;;;;;;;;;8.60;99.90;;;;;;4894705;29;19924;-78
2022/04/06 00:55:08;;;;;;;;;;;8.60;99.90;;;;;;4909783;29;20311;-76
2022/04/06 00:57:34;;;;;;;;;;;8.60;99.90;;;;;;4913203;29;19927;-77
2022/04/06 01:00:01;;;;;;;;;;;8.60;99.90;;;;;;4914447;29;20109;-77
2022/04/06 01:02:26;;;;;;;;;;;8.60;99.90;;;;;;4914435;29;19923;-76
2022/04/06 01:04:52;;;;;;;;;;;8.60;99.90;;;;;;4894461;29;20342;-76
2022/04/06 01:07:18;;;;;;;;;;;8.60;99.90;;;;;;4895346;29;19927;-76
2022/04/06 01:09:44;;;;;;;;;;;8.60;99.90;;;;;;4894681;29;19970;-78
2022/04/06 01:12:10;;;;;;;;;;;8.70;99.90;;;;;;4894162;29;19970;-77
2022/04/06 01:14:37;;;;;;;;;;;8.70;99.90;;;;;;4899162;29;19934;-76
2022/04/06 01:17:04;;;;;;;;;;;8.70;99.90;;;;;;4907442;29;20297;-76
2022/04/06 01:19:34;;;;;;;;;;;8.60;99.90;;;;;;4897154;29;19923;-78
2022/04/06 01:22:00;;;;;;;;;;;8.60;99.90;;;;;;4897310;29;19927;-76
2022/04/06 01:24:26;;;;;;;;;;;8.60;99.90;;;;;;4913840;29;19977;-77
2022/04/06 01:26:52;;;;;;;;;;;8.60;99.90;;;;;;4912548;29;19935;-80
2022/04/06 01:29:17;;;;;;;;;;;8.60;99.90;;;;;;4913638;29;19975;-78
2022/04/06 01:31:43;;;;;;;;;;;8.60;99.90;;;;;;4913763;29;19977;-83
2022/04/06 01:34:08;;;;;;;;;;;8.60;99.90;;;;;;4914063;29;19923;-77
2022/04/06 01:36:34;;;;;;;;;;;8.60;99.90;;;;;;4913430;29;19923;-77
2022/04/06 01:39:00;;;;;;;;;;;8.60;99.90;;;;;;4893893;29;20393;-78
2022/04/06 01:41:32;;;;;;;;;;;8.60;99.90;;;;;;4895214;29;19927;-77
2022/04/06 01:43:57;;;;;;;;;;;8.60;99.90;;;;;;4895819;29;19923;-77
2022/04/06 01:46:23;;;;;;;;;;;8.60;99.90;;;;;;4913755;29;19923;-77
2022/04/06 01:54:17;;;;;;;;;;;8.70;99.90;;;;;;4913017;29;19975;-78
2022/04/06 01:56:42;;;;;;;;;;;8.60;99.90;;;;;;4914435;29;19927;-83
2022/04/06 01:59:08;;;;;;;;;;;8.60;99.90;;;;;;4907387;29;20529;-77
2022/04/06 02:01:36;;;;;;;;;;;8.60;99.90;;;;;;4898040;29;19930;-77
2022/04/06 02:04:06;;;;;;;;;;;8.60;99.90;;;;;;4913073;29;20388;-77
2022/04/06 02:06:33;;;;;;;;;;;8.60;99.90;;;;;;4897766;29;19991;-76
2022/04/06 02:08:58;;;;;;;;;;;8.60;99.90;;;;;;4897062;29;19934;-77
2022/04/06 02:11:24;;;;;;;;;;;8.60;99.90;;;;;;4900935;29;19927;-79
2022/04/06 02:13:49;;;;;;;;;;;8.60;99.90;;;;;;4913301;29;20010;-77
2022/04/06 02:16:15;;;;;;;;;;;8.60;99.90;;;;;;4916976;29;19929;-77
2022/04/06 02:18:41;;;;;;;;;;;8.60;99.90;;;;;;4901274;29;19927;-78
2022/04/06 02:21:06;;;;;;;;;;;8.60;99.90;;;;;;4916352;29;19934;-77
2022/04/06 02:23:32;;;;;;;;;;;8.60;99.90;;;;;;4897906;29;19929;-76
2022/04/06 02:25:58;;;;;;;;;;;8.60;99.90;;;;;;4897507;29;20343;-76
2022/04/06 02:28:23;;;;;;;;;;;8.70;99.90;;;;;;4913478;29;19934;-77
2022/04/06 02:30:49;;;;;;;;;;;8.70;99.90;;;;;;4910429;29;19927;-76
2022/04/06 02:33:14;;;;;;;;;;;8.70;99.90;;;;;;4891140;29;19927;-77
2022/04/06 02:35:40;;;;;;;;;;;8.70;99.90;;;;;;4881820;29;19924;-77
2022/04/06 02:38:05;;;;;;;;;;;8.80;99.90;;;;;;4881860;29;19929;-78
2022/04/06 02:40:33;;;;;;;;;;;8.70;99.90;;;;;;4897758;29;19934;-77
2022/04/06 02:42:58;;;;;;;;;;;8.70;99.90;;;;;;4880806;29;19931;-77
2022/04/06 02:45:24;;;;;;;;;;;8.60;99.90;;;;;;4899916;29;19931;-77
2022/04/06 02:47:49;;;;;;;;;;;8.60;99.90;;;;;;4916373;29;19973;-78
2022/04/06 02:50:15;;;;;;;;;;;8.60;99.90;;;;;;4916348;29;20365;-78
2022/04/06 02:52:41;;;;;;;;;;;8.60;99.90;;;;;;4913883;29;19931;-77
2022/04/06 02:55:09;;;;;;;;;;;8.60;99.90;;;;;;4910826;29;20076;-77
2022/04/06 02:57:34;;;;;;;;;;;8.60;99.90;;;;;;4896641;29;19974;-77
2022/04/06 03:00:00;;;;;;;;;;;8.60;99.90;;;;;;4897117;29;19967;-76
2022/04/06 03:02:26;;;;;;;;;;;8.60;99.90;;;;;;4897426;29;19927;-77
2022/04/06 03:04:51;;;;;;;;;;;8.60;99.90;;;;;;4896411;29;19935;-77
2022/04/06 03:07:18;;;;;;;;;;;8.60;99.90;;;;;;4882065;29;20006;-77
2022/04/06 03:09:44;;;;;;;;;;;8.60;99.90;;;;;;4915122;29;19923;-77
2022/04/06 03:12:09;;;;;;;;;;;8.60;99.90;;;;;;4895665;29;20192;-78
2022/04/06 03:14:35;;;;;;;;;;;8.60;99.90;;;;;;4899725;29;19923;-78
2022/04/06 03:17:00;;;;;;;;;;;8.60;99.90;;;;;;4915573;29;20424;-77
2022/04/06 03:19:26;;;;;;;;;;;8.60;99.90;;;;;;4900094;29;19930;-77
2022/04/06 03:21:52;;;;;;;;;;;8.60;99.90;;;;;;4884042;29;19934;-78
2022/04/06 03:24:17;;;;;;;;;;;8.70;99.90;;;;;;4897577;29;19927;-77
2022/04/06 03:26:43;;;;;;;;;;;8.70;99.90;;;;;;4883818;29;19930;-78
2022/04/06 03:29:08;;;;;;;;;;;8.60;99.90;;;;;;4898398;29;20007;-77
2022/04/06 03:31:34;;;;;;;;;;;8.70;99.90;;;;;;4902387;29;19923;-78
2022/04/06 03:34:00;;;;;;;;;;;8.70;99.90;;;;;;4896562;29;20036;-77
2022/04/06 03:36:26;;;;;;;;;;;8.70;99.90;;;;;;4915464;29;19923;-77
2022/04/06 03:38:51;;;;;;;;;;;8.70;99.90;;;;;;4914809;29;19923;-83
2022/04/06 03:41:17;;;;;;;;;;;8.70;99.90;;;;;;4915758;29;19923;-77
2022/04/06 03:43:42;;;;;;;;;;;8.70;99.90;;;;;;4883183;29;20433;-77
2022/04/06 03:46:08;;;;;;;;;;;8.70;99.90;;;;;;4883559;29;19927;-77
2022/04/06 03:48:34;;;;;;;;;;;8.70;99.90;;;;;;4908486;29;20030;-77
2022/04/06 03:50:59;;;;;;;;;;;8.70;99.90;;;;;;4895731;29;20393;-77
2022/04/06 03:53:25;;;;;;;;;;;8.70;99.90;;;;;;4880520;29;19924;-77
2022/04/06 03:55:50;;;;;;;;;;;8.70;99.90;;;;;;4897143;29;19923;-77
2022/04/06 03:58:16;;;;;;;;;;;8.70;99.90;;;;;;4900178;29;19958;-77
2022/04/06 04:00:42;;;;;;;;;;;8.70;99.90;;;;;;4915547;29;20353;-76
2022/04/06 04:03:07;;;;;;;;;;;8.70;99.90;;;;;;4915036;29;19930;-77
2022/04/06 04:05:33;;;;;;;;;;;8.80;99.90;;;;;;4895779;29;20388;-77
2022/04/06 04:07:58;;;;;;;;;;;8.80;99.90;;;;;;4895809;29;19930;-77
2022/04/06 04:10:24;;;;;;;;;;;8.80;99.90;;;;;;4865408;29;20373;-77
2022/04/06 04:12:50;;;;;;;;;;;8.80;99.90;;;;;;4895145;29;19971;-77
2022/04/06 04:15:15;;;;;;;;;;;8.80;99.90;;;;;;4895887;29;20073;-78
2022/04/06 04:17:41;;;;;;;;;;;8.80;99.90;;;;;;4883736;29;20013;-77
2022/04/06 04:20:07;;;;;;;;;;;8.70;99.90;;;;;;4866211;29;19946;-77
2022/04/06 04:22:32;;;;;;;;;;;8.70;99.90;;;;;;4900135;29;19970;-77
2022/04/06 04:24:58;;;;;;;;;;;8.70;99.90;;;;;;4914148;29;19949;-78
2022/04/06 04:27:23;;;;;;;;;;;8.70;99.90;;;;;;4870927;29;19949;-77
2022/04/06 04:29:49;;;;;;;;;;;8.80;99.90;;;;;;4895698;29;19950;-77
2022/04/06 04:32:16;;;;;;;;;;;8.80;99.90;;;;;;4907998;29;19981;-77
2022/04/06 04:34:42;;;;;;;;;;;8.70;99.90;;;;;;4914415;29;19938;-77
2022/04/06 04:37:08;;;;;;;;;;;8.70;99.90;;;;;;4901262;29;20353;-77
2022/04/06 04:39:33;;;;;;;;;;;8.70;99.90;;;;;;4864787;29;19935;-77
2022/04/06 04:41:59;;;;;;;;;;;8.70;99.90;;;;;;4894059;29;19935;-77
2022/04/06 04:44:24;;;;;;;;;;;8.70;99.90;;;;;;4895771;29;19975;-79
2022/04/06 04:46:50;;;;;;;;;;;8.70;99.90;;;;;;4908168;29;20329;-78
2022/04/06 04:49:16;;;;;;;;;;;8.70;99.90;;;;;;4898362;29;19919;-78
2022/04/06 04:51:41;;;;;;;;;;;8.70;99.90;;;;;;4912907;29;19926;-77
2022/04/06 04:54:07;;;;;;;;;;;8.70;99.90;;;;;;4913155;29;19923;-77
2022/04/06 04:56:33;;;;;;;;;;;8.70;99.90;;;;;;4880078;29;19934;-78
2022/04/06 04:58:59;;;;;;;;;;;8.70;99.90;;;;;;4901511;29;19934;-78
2022/04/06 05:01:25;;;;;;;;;;;8.70;99.90;;;;;;4907300;29;19934;-77
2022/04/06 05:03:51;;;;;;;;;;;8.70;99.90;;;;;;4914076;29;19927;-77
2022/04/06 05:06:17;;;;;;;;;;;8.70;99.90;;;;;;4912813;29;19919;-80
2022/04/06 05:08:43;;;;;;;;;;;8.60;99.90;;;;;;4913916;29;19927;-79
2022/04/06 05:11:08;;;;;;;;;;;8.70;99.90;;;;;;4898731;29;19927;-77
2022/04/06 05:13:34;;;;;;;;;;;8.60;99.90;;;;;;4906123;29;19927;-77
2022/04/06 05:15:59;;;;;;;;;;;8.60;99.90;;;;;;4900464;29;19923;-78
2022/04/06 05:18:26;;;;;;;;;;;8.50;99.90;;;;;;4905000;29;19930;-78
2022/04/06 05:20:53;;;;;;;;;;;8.60;99.90;;;;;;4913503;29;19930;-77
2022/04/06 05:23:18;;;;;;;;;;;8.60;99.90;;;;;;4903345;29;19930;-78
2022/04/06 05:25:44;;;;;;;;;;;8.60;99.90;;;;;;4894716;29;19927;-77
2022/04/06 05:28:10;;;;;;;;;;;8.60;99.90;;;;;;4877780;29;19927;-77
2022/04/06 05:30:38;;;;;;;;;;;8.60;99.90;;;;;;4901042;29;19923;-77
2022/04/06 05:33:03;;;;;;;;;;;8.60;99.90;;;;;;4911466;29;19946;-81
2022/04/06 05:35:29;;;;;;;;;;;8.60;99.90;;;;;;4901991;29;20382;-78
2022/04/06 05:37:56;;;;;;;;;;;8.60;99.90;;;;;;4897794;29;19934;-77
2022/04/06 05:40:22;;;;;;;;;;;8.60;99.90;;;;;;4912908;29;19934;-77
2022/04/06 05:42:48;;;;;;;;;;;8.60;99.90;;;;;;4912695;29;20285;-81
2022/04/06 05:45:13;;;;;;;;;;;8.60;99.90;;;;;;4913104;29;19923;-77
2022/04/06 05:47:39;;;;;;;;;;;8.60;99.90;;;;;;4914012;29;19922;-79
2022/04/06 05:50:06;;;;;;;;;;;8.80;99.90;;;;;;4909891;29;20010;-79
2022/04/06 05:52:32;;;;;;;;;;;8.60;99.90;;;;;;4899416;29;19928;-77
2022/04/06 05:54:57;;;;;;;;;;;8.60;99.90;;;;;;4898771;29;19929;-77
2022/04/06 05:57:23;;;;;;;;;;;8.60;99.90;;;;;;4910606;29;19927;-77
2022/04/06 05:59:49;;;;;;;;;;;8.60;99.90;;;;;;4903644;29;19924;-78
2022/04/06 06:02:14;;;;;;;;;;;8.60;99.90;;;;;;4916875;29;19922;-77
2022/04/06 06:04:40;;;;;;;;;;;8.60;99.90;;;;;;4897826;29;19950;-77
2022/04/06 06:07:06;;;;;;;;;;;8.70;99.90;;;;;;4897880;29;20361;-77
2022/04/06 06:09:32;;;;;;;;;;;8.70;99.90;;;;;;4910486;29;19935;-77
2022/04/06 06:11:59;;;;;;;;;;;8.70;99.90;;;;;;4912148;29;19927;-78
2022/04/06 06:14:26;;;;;;;;;;;8.60;99.90;;;;;;4885339;29;19930;-79
2022/04/06 06:16:51;;;;;;;;;;;8.70;99.90;;;;;;4901047;29;19927;-78
2022/04/06 06:19:17;;;;;;;;;;;8.60;99.90;;;;;;4907120;29;20061;-78
2022/04/06 06:21:43;;;;;;;;;;;8.70;99.90;;;;;;4903181;29;19969;-78
2022/04/06 06:24:08;;;;;;;;;;;8.60;99.90;;;;;;4902243;29;19930;-77
2022/04/06 06:26:35;;;;;;;;;;;8.70;99.90;;;;;;4899616;29;19962;-77
2022/04/06 06:29:01;;;;;;;;;;;8.70;99.90;;;;;;4904887;29;19931;-77
2022/04/06 06:31:28;;;;;;;;;;;8.70;99.90;;;;;;4907157;29;19923;-78
2022/04/06 06:33:54;;;;;;;;;;;8.70;99.90;;;;;;4882517;29;20402;-79
2022/04/06 06:36:19;;;;;;;;;;;8.70;99.90;;;;;;4901546;29;19923;-77
2022/04/06 06:38:45;;;;;;;;;;;8.60;99.90;;;;;;4913590;29;20484;-78
2022/04/06 06:41:10;;;;;;;;;;;8.70;99.90;;;;;;4915701;29;19923;-77
2022/04/06 06:43:36;;;;;;;;;;;8.70;99.90;;;;;;4915116;29;19923;-78
2022/04/06 06:46:01;;;;;;;;;;;8.60;99.90;;;;;;4916152;29;19931;-77
2022/04/06 06:48:27;;;;;;;;;;;8.70;99.90;;;;;;4915833;29;19927;-77
2022/04/06 06:50:53;;;;;;;;;;;8.70;99.90;;;;;;4914050;29;20309;-77
2022/04/06 06:53:18;;;;;;;;;;;8.70;99.90;;;;;;4906628;29;19923;-80
2022/04/06 06:55:44;;;;;;;;;;;8.70;99.90;;;;;;4916685;29;19929;-79
2022/04/06 06:58:09;;;;;;;;;;;8.70;99.90;;;;;;4903176;29;19924;-76
2022/04/06 07:00:35;;;;;;;;;;;8.70;99.90;;;;;;4881888;29;20306;-77
2022/04/06 07:03:00;;;;;;;;;;;8.70;99.90;;;;;;4897663;29;19934;-76
2022/04/06 07:05:28;;;;;;;;;;;8.70;99.90;;;;;;4913964;29;20533;-76
2022/04/06 07:07:53;;;;;;;;;;;8.70;99.90;;;;;;4900294;29;20018;-76
2022/04/06 07:10:23;;;;;;;;;;;8.60;99.90;;;;;;4913690;29;20009;-78
2022/04/06 07:12:49;;;;;;;;;;;8.60;99.90;;;;;;4905428;29;19924;-76
2022/04/06 07:15:14;;;;;;;;;;;8.70;99.90;;;;;;4897008;29;20014;-77
2022/04/06 07:17:40;;;;;;;;;;;8.70;99.90;;;;;;4897561;29;19939;-78
2022/04/06 07:20:06;;;;;;;;;;;8.70;99.90;;;;;;4896870;29;19927;-77
2022/04/06 07:22:32;;;;;;;;;;;8.70;99.90;;;;;;4912412;29;19931;-76
2022/04/06 07:24:57;;;;;;;;;;;8.70;99.90;;;;;;4897041;29;20413;-76
2022/04/06 07:27:23;;;;;;;;;;;8.70;99.90;;;;;;4895639;29;19927;-77
2022/04/06 07:29:48;;;;;;;;;;;8.70;99.90;;;;;;4897074;29;20619;-77
2022/04/06 07:32:14;;;;;;;;;;;8.90;99.90;;;;;;4899974;29;19923;-77
2022/04/06 07:34:40;;;;;;;;;;;8.70;99.90;;;;;;4904943;29;19923;-76
2022/04/06 07:37:05;;;;;;;;;;;8.80;99.90;;;;;;4896879;29;19923;-77
2022/04/06 07:39:31;;;;;;;;;;;8.80;99.90;;;;;;4907855;29;20057;-77
2022/04/06 07:41:57;;;;;;;;;;;8.80;99.90;;;;;;4913649;29;19923;-77
2022/04/06 07:44:23;;;;;;;;;;;8.80;99.90;;;;;;4914928;29;19927;-79
2022/04/06 07:46:49;;;;;;;;;;;8.90;99.90;;;;;;4917152;29;19933;-76
2022/04/06 07:49:14;;;;;;;;;;;8.80;99.90;;;;;;4914674;29;19927;-75
2022/04/06 07:51:40;;;;;;;;;;;8.80;99.90;;;;;;4899763;29;20030;-75
2022/04/06 07:54:06;;;;;;;;;;;8.70;99.90;;;;;;4912185;29;20355;-77
2022/04/06 07:56:31;;;;;;;;;;;8.70;99.90;;;;;;4915630;29;20299;-77
2022/04/06 07:58:57;;;;;;;;;;;8.50;99.90;;;;;;4915287;29;19923;-78
2022/04/06 08:01:22;;;;;;;;;;;8.60;99.90;;;;;;4915525;29;20365;-76
2022/04/06 08:03:48;;;;;;;;;;;8.60;99.90;;;;;;4915772;29;19922;-77
2022/04/06 08:06:14;;;;;;;;;;;8.60;99.90;;;;;;4883553;29;20388;-79
2022/04/06 08:08:39;;;;;;;;;;;8.60;99.90;;;;;;4914430;29;19930;-76
2022/04/06 08:11:05;;;;;;;;;;;8.60;99.90;;;;;;4914792;29;20400;-75
2022/04/06 08:13:34;;;;;;;;;;;8.60;99.90;;;;;;4912849;29;19923;-76
2022/04/06 08:15:59;;;;;;;;;;;8.70;99.90;;;;;;4896325;29;19923;-75
2022/04/06 08:18:25;;;;;;;;;;;8.70;99.90;;;;;;4896181;29;19978;-78
2022/04/06 08:20:51;;;;;;;;;;;8.70;99.90;;;;;;4895938;29;19923;-77
2022/04/06 08:23:18;;;;;;;;;;;8.70;99.90;;;;;;4895862;29;19923;-77
2022/04/06 08:25:44;;;;;;;;;;;8.80;99.90;;;;;;4880774;29;19927;-76
2022/04/06 08:28:10;;;;;;;;;;;8.80;99.90;;;;;;4908609;29;20006;-76
2022/04/06 08:30:39;;;;;;;;;;;8.80;99.90;;;;;;4914722;29;20374;-76
2022/04/06 08:33:05;;;;;;;;;;;8.90;99.90;;;;;;4913538;29;19938;-76
2022/04/06 08:35:31;;;;;;;;;;;8.90;99.90;;;;;;4902088;29;20377;-76
2022/04/06 08:37:56;;;;;;;;;;;8.90;99.90;;;;;;4912745;29;20554;-76
2022/04/06 08:40:22;;;;;;;;;;;9.10;99.90;;;;;;4907917;29;20029;-76
2022/04/06 08:42:47;;;;;;;;;;;8.90;99.90;;;;;;4909840;29;19931;-80
2022/04/06 08:45:13;;;;;;;;;;;9.00;99.90;;;;;;4911101;29;19935;-79
2022/04/06 08:47:39;;;;;;;;;;;9.00;99.90;;;;;;4913473;29;20428;-78
2022/04/06 08:50:05;;;;;;;;;;;9.00;99.90;;;;;;4911226;29;19963;-78
2022/04/06 08:52:32;;;;;;;;;;;9.10;99.90;;;;;;4913025;29;19922;-77
2022/04/06 08:54:58;;;;;;;;;;;9.20;99.90;;;;;;4897804;29;19938;-77
2022/04/06 08:57:23;;;;;;;;;;;9.40;99.90;;;;;;4911301;29;19927;-76
2022/04/06 08:59:50;;;;;;;;;;;9.50;99.90;;;;;;4898390;29;19927;-77
2022/04/06 09:02:19;;;;;;;;;;;9.50;99.90;;;;;;4913552;29;20053;-83
2022/04/06 09:04:54;;;;;;;;;;;9.50;99.90;;;;;;4910035;29;20006;-77
2022/04/06 09:07:21;;;;;;;;;;;9.40;99.90;;;;;;4887165;29;20023;-77
2022/04/06 09:09:54;;;;;;;;;;;9.40;99.90;;;;;;4906683;29;19927;-78
2022/04/06 09:12:21;;;;;;;;;;;9.40;99.90;;;;;;4896232;29;19923;-77
2022/04/06 09:14:47;;;;;;;;;;;9.30;99.90;;;;;;4908100;29;19922;-77
2022/04/06 09:17:17;;;;;;;;;;;9.30;99.90;;;;;;4908382;29;19977;-77
2022/04/06 09:19:45;;;;;;;;;;;9.30;99.90;;;;;;4895578;29;19928;-76
2022/04/06 09:22:11;;;;;;;;;;;9.30;99.90;;;;;;4901049;29;19923;-76
2022/04/06 09:24:37;;;;;;;;;;;9.30;99.90;;;;;;4908141;29;20012;-77
2022/04/06 09:27:04;;;;;;;;;;;9.20;99.90;;;;;;4900210;29;19927;-78
2022/04/06 09:29:30;;;;;;;;;;;9.20;99.90;;;;;;4894927;29;19923;-78
2022/04/06 09:32:04;;;;;;;;;;;9.40;99.90;;;;;;4901170;29;19923;-80
2022/04/06 09:34:32;;;;;;;;;;;9.10;99.90;;;;;;4916899;29;19923;-78
2022/04/06 09:36:57;;;;;;;;;;;9.10;99.90;;;;;;4900494;29;19928;-80
2022/04/06 09:39:42;;;;;;;;;;;9.10;99.90;;;;;;4903244;29;19923;-78
2022/04/06 09:42:08;;;;;;;;;;;9.20;99.90;;;;;;4894992;29;19923;-79
2022/04/06 09:47:38;;;;;;;;;;;9.30;99.90;;;;;;4894635;29;20403;-76
2022/04/06 09:50:14;;;;;;;;;;;9.40;99.90;;;;;;4900838;29;19933;-80
2022/04/06 09:52:40;;;;;;;;;;;9.40;99.90;;;;;;4895053;29;20493;-76
2022/04/06 09:55:07;;;;;;;;;;;9.40;99.90;;;;;;4913385;29;19973;-76
2022/04/06 09:57:39;;;;;;;;;;;9.40;99.90;;;;;;4912149;29;19923;-78
2022/04/06 10:00:05;;;;;;;;;;;9.30;99.90;;;;;;4913190;29;20022;-77
2022/04/06 10:02:33;;;;;;;;;;;9.30;99.90;;;;;;4914330;29;20457;-77
2022/04/06 10:05:00;;;;;;;;;;;9.30;99.90;;;;;;4889500;29;19928;-76
2022/04/06 10:07:25;;;;;;;;;;;9.40;99.90;;;;;;4894073;29;20096;-77
2022/04/06 10:09:51;;;;;;;;;;;9.30;99.90;;;;;;4910039;29;20053;-76
2022/04/06 10:12:17;;;;;;;;;;;9.40;99.90;;;;;;4896173;29;20026;-76
2022/04/06 10:14:43;;;;;;;;;;;9.40;99.90;;;;;;4909202;29;20009;-76
2022/04/06 10:17:09;;;;;;;;;;;9.40;99.90;;;;;;4912134;29;19987;-76
2022/04/06 10:19:39;;;;;;;;;;;9.50;99.90;;;;;;4907530;29;19923;-76
2022/04/06 10:22:10;;;;;;;;;;;9.50;99.90;;;;;;4905533;29;19934;-77
2022/04/06 10:24:55;;;;;;;;;;;9.50;99.90;;;;;;4897230;29;19927;-77
2022/04/06 10:27:35;;;;;;;;;;;9.50;99.90;;;;;;4912309;29;19927;-77
2022/04/06 10:30:07;;;;;;;;;;;9.50;99.90;;;;;;4897820;29;20381;-77
2022/04/06 10:32:34;;;;;;;;;;;9.50;99.90;;;;;;4894212;29;19967;-76
2022/04/06 10:35:18;;;;;;;;;;;9.50;99.90;;;;;;4896198;29;19987;-77
2022/04/06 10:38:07;;;;;;;;;;;9.50;99.90;;;;;;4897513;29;20384;-78
2022/04/06 10:40:42;;;;;;;;;;;9.60;99.90;;;;;;4894229;29;19923;-76
2022/04/06 10:43:27;;;;;;;;;;;9.60;99.90;;;;;;4896557;29;19924;-76
2022/04/06 10:45:54;;;;;;;;;;;9.70;99.90;;;;;;4913815;29;20377;-76
2022/04/06 10:48:19;;;;;;;;;;;9.70;99.90;;;;;;4916938;29;19923;-77
2022/04/06 10:50:46;;;;;;;;;;;9.80;99.90;;;;;;4884508;29;20481;-76
2022/04/06 10:53:18;;;;;;;;;;;9.80;99.90;;;;;;4897279;29;19927;-78
2022/04/06 10:56:03;;;;;;;;;;;9.70;99.90;;;;;;4881646;29;20282;-77
2022/04/06 10:58:48;;;;;;;;;;;9.70;99.90;;;;;;4896188;29;19923;-77
2022/04/06 11:01:15;;;;;;;;;;;9.70;99.90;;;;;;4897585;29;19983;-77
2022/04/06 11:03:43;;;;;;;;;;;9.70;99.90;;;;;;4900559;29;20401;-79
2022/04/06 11:06:09;;;;;;;;;;;9.70;99.90;;;;;;4900811;29;20398;-77
2022/04/06 11:11:38;;;;;;;;;;;9.60;99.90;;;;;;4897126;29;19923;-79
2022/04/06 11:14:04;;;;;;;;;;;9.60;99.90;;;;;;4880556;29;19927;-77
2022/04/06 11:16:40;;;;;;;;;;;9.60;99.90;;;;;;4894605;29;20021;-78
2022/04/06 11:19:06;;;;;;;;;;;9.60;99.90;;;;;;4912429;29;19927;-79
2022/04/06 11:21:32;;;;;;;;;;;9.60;99.90;;;;;;4907662;29;19927;-78
2022/04/06 11:23:57;;;;;;;;;;;9.60;99.90;;;;;;4903202;29;19931;-77
2022/04/06 11:26:24;;;;;;;;;;;9.50;99.90;;;;;;4906657;29;20274;-78
2022/04/06 11:28:57;;;;;;;;;;;9.50;99.90;;;;;;4908765;29;19975;-78
2022/04/06 11:31:23;;;;;;;;;;;9.50;99.90;;;;;;4904671;29;19923;-78
2022/04/06 11:33:49;;;;;;;;;;;9.40;99.90;;;;;;4908750;29;19978;-78
2022/04/06 11:36:16;;;;;;;;;;;9.30;99.90;;;;;;4904300;29;20571;-77
2022/04/06 11:38:42;;;;;;;;;;;9.30;99.90;;;;;;4903039;29;20323;-77
2022/04/06 11:41:07;;;;;;;;;;;9.20;99.90;;;;;;4906811;29;19923;-77
2022/04/06 11:43:36;;;;;;;;;;;9.20;99.90;;;;;;4899887;29;19929;-77
2022/04/06 11:46:02;;;;;;;;;;;9.20;99.90;;;;;;4897988;29;19934;-78
2022/04/06 11:48:37;;;;;;;;;;;9.20;99.90;;;;;;4903362;29;19922;-85
2022/04/06 11:51:03;;;;;;;;;;;9.30;99.90;;;;;;4906264;29;20405;-79
2022/04/06 11:53:29;;;;;;;;;;;9.30;99.90;;;;;;4894967;29;19934;-83
2022/04/06 11:55:55;;;;;;;;;;;9.40;99.90;;;;;;4898393;29;20388;-78
2022/04/06 11:58:30;;;;;;;;;;;9.50;99.90;;;;;;4907101;29;19923;-79
2022/04/06 12:01:00;;;;;;;;;;;9.60;99.90;;;;;;4904410;29;19923;-78
2022/04/06 12:03:35;;;;;;;;;;;9.60;99.90;;;;;;4904398;29;20041;-78
2022/04/06 12:06:02;;;;;;;;;;;9.70;99.90;;;;;;4899877;29;19927;-79
2022/04/06 12:08:28;;;;;;;;;;;9.80;99.90;;;;;;4915865;29;20002;-79
2022/04/06 12:10:58;;;;;;;;;;;9.70;99.90;;;;;;4911783;29;20013;-79
2022/04/06 12:13:28;;;;;;;;;;;9.60;99.90;;;;;;4906266;29;19930;-80
2022/04/06 12:15:55;;;;;;;;;;;9.60;99.90;;;;;;4901481;29;19934;-79
2022/04/06 12:18:21;;;;;;;;;;;9.70;99.90;;;;;;4881724;29;19982;-78
2022/04/06 12:20:47;;;;;;;;;;;9.90;99.90;;;;;;4911057;29;19922;-79
2022/04/06 12:23:13;;;;;;;;;;;10.00;99.90;;;;;;4898394;29;19924;-79
2022/04/06 12:25:39;;;;;;;;;;;10.10;99.90;;;;;;4896146;29;19927;-81
2022/04/06 12:28:31;;;;;;;;;;;10.10;99.90;;;;;;4881385;29;19934;-81
2022/04/06 12:31:01;;;;;;;;;;;10.20;99.90;;;;;;4910852;29;19927;-78
2022/04/06 12:33:44;;;;;;;;;;;10.30;99.90;;;;;;4914672;29;20010;-80
2022/04/06 12:36:23;;;;;;;;;;;10.40;99.90;;;;;;4911694;29;20393;-78
2022/04/06 12:38:56;;;;;;;;;;;10.30;99.90;;;;;;4912039;29;20285;-78
2022/04/06 12:41:23;;;;;;;;;;;10.30;99.90;;;;;;4910796;29;19962;-79
2022/04/06 12:43:49;;;;;;;;;;;10.20;99.90;;;;;;4903142;29;19930;-77
2022/04/06 12:46:34;;;;;;;;;;;10.20;99.90;;;;;;4903094;29;19923;-77
2022/04/06 12:49:19;;;;;;;;;;;10.10;99.90;;;;;;4903894;29;19934;-77
2022/04/06 12:51:44;;;;;;;;;;;10.10;99.90;;;;;;4897329;29;19923;-76
2022/04/06 12:54:11;;;;;;;;;;;10.10;99.90;;;;;;4903786;29;19927;-77
2022/04/06 12:56:37;;;;;;;;;;;10.10;99.90;;;;;;4912108;29;19923;-78
2022/04/06 12:59:09;;;;;;;;;;;10.00;99.90;;;;;;4905039;29;19923;-77
2022/04/06 13:01:45;;;;;;;;;;;10.00;99.90;;;;;;4903962;29;20391;-84
2022/04/06 13:04:10;;;;;;;;;;;10.00;99.90;;;;;;4896207;29;19923;-79
2022/04/06 13:06:36;;;;;;;;;;;10.00;99.90;;;;;;4894803;29;19931;-77
2022/04/06 13:09:02;;;;;;;;;;;10.00;99.90;;;;;;4902497;29;20353;-77
2022/04/06 13:11:27;;;;;;;;;;;10.00;99.90;;;;;;4910716;29;20262;-77
2022/04/06 13:13:53;;;;;;;;;;;10.00;99.90;;;;;;4898812;29;20085;-79
2022/04/06 13:16:19;;;;;;;;;;;9.90;99.90;;;;;;4913526;29;19934;-79
2022/04/06 13:18:45;;;;;;;;;;;9.90;99.90;;;;;;4897000;29;20338;-77
2022/04/06 13:21:11;;;;;;;;;;;9.90;99.90;;;;;;4910448;29;19943;-78
2022/04/06 13:23:37;;;;;;;;;;;9.90;99.90;;;;;;4907883;29;19934;-85
2022/04/06 13:26:03;;;;;;;;;;;9.90;99.90;;;;;;4913217;29;19927;-77
2022/04/06 13:28:29;;;;;;;;;;;9.90;99.90;;;;;;4902684;29;19927;-77
2022/04/06 13:30:57;;;;;;;;;;;9.90;99.90;;;;;;4895091;29;20016;-77
2022/04/06 13:33:23;;;;;;;;;;;9.80;99.90;;;;;;4910828;29;20373;-77
2022/04/06 13:35:50;;;;;;;;;;;9.80;99.90;;;;;;4908497;29;19972;-80
2022/04/06 13:38:16;;;;;;;;;;;9.80;99.90;;;;;;4902423;29;20202;-77
2022/04/06 13:40:41;;;;;;;;;;;9.80;99.90;;;;;;4889299;29;19995;-77
2022/04/06 13:43:07;;;;;;;;;;;9.80;99.90;;;;;;4894216;29;19952;-78
2022/04/06 13:45:32;;;;;;;;;;;9.80;99.90;;;;;;4906081;29;19966;-77
2022/04/06 13:47:58;;;;;;;;;;;9.90;99.90;;;;;;4901377;29;19987;-79
2022/04/06 13:50:24;;;;;;;;;;;9.90;99.90;;;;;;4912409;29;20268;-78
2022/04/06 13:52:49;;;;;;;;;;;9.90;99.90;;;;;;4896810;29;19975;-77
2022/04/06 13:55:21;;;;;;;;;;;10.00;99.90;;;;;;4913671;29;20009;-77
2022/04/06 13:57:47;;;;;;;;;;;9.80;99.90;;;;;;4912789;29;19926;-77
2022/04/06 14:00:14;;;;;;;;;;;9.80;99.90;;;;;;4898254;29;19991;-78
2022/04/06 14:02:39;;;;;;;;;;;9.80;99.90;;;;;;4913471;29;19970;-83
2022/04/06 14:05:05;;;;;;;;;;;9.70;99.90;;;;;;4913092;29;19958;-77
2022/04/06 14:07:31;;;;;;;;;;;9.70;99.90;;;;;;4913355;29;20012;-76
2022/04/06 14:09:57;;;;;;;;;;;9.60;99.90;;;;;;4914812;29;20372;-76
2022/04/06 14:12:22;;;;;;;;;;;9.60;99.90;;;;;;4916049;29;19933;-76
2022/04/06 14:14:48;;;;;;;;;;;9.70;99.90;;;;;;4901339;29;19931;-78
2022/04/06 14:17:13;;;;;;;;;;;9.70;99.90;;;;;;4914342;29;19923;-78
2022/04/06 14:19:39;;;;;;;;;;;9.70;99.90;;;;;;4911683;29;20445;-83
2022/04/06 14:22:05;;;;;;;;;;;9.70;99.90;;;;;;4915671;29;19934;-77
2022/04/06 14:24:30;;;;;;;;;;;9.60;99.90;;;;;;4916420;29;19978;-78
2022/04/06 14:26:56;;;;;;;;;;;9.60;99.90;;;;;;4893773;29;19924;-78
2022/04/06 14:29:22;;;;;;;;;;;9.70;99.90;;;;;;4908465;29;20137;-79
2022/04/06 14:31:47;;;;;;;;;;;9.60;99.90;;;;;;4910725;29;21175;-77
2022/04/06 14:34:13;;;;;;;;;;;9.60;99.90;;;;;;4909104;29;19926;-77
2022/04/06 14:36:40;;;;;;;;;;;9.60;99.90;;;;;;4909320;29;19927;-78
2022/04/06 14:39:07;;;;;;;;;;;9.60;99.90;;;;;;4880484;29;19963;-78